• Join FlightAware (Why Join?)
  • Login
  • US Flag 
02:20PM EDT


 

Airport Tracker/Info


-or-


 

Live Flight TrackerFlight Track Log ✈ CPT7773 ✈ 28-Jun-2013 ✈ KCOD - KCPR

Flight Track Log - Related Links

Times and Time Zones

All times are in EDT time to prevent confusion due to time zone crossing. See the CPT7773 flight status page for this flight to view local times or setup timezone preferences in your user account.

Time Position Orientation Groundspeed Altitude Reporting Facility
EDT Latitude Longitude Course Direction KTS MPH feet Rate Location/Type
08:08PM 44.4009 -108.7619 120° Southeast  Level FlightAware Approximate
08:09PM 44.3791 -108.7094 120° Southeast  Level FlightAware Approximate
08:10PM 44.3555 -108.6528 120° Southeast  Level FlightAware Approximate
08:11PM 44.3320 -108.5960 115° Southeast  Level FlightAware Approximate
08:12PM 44.3111 -108.5374 122° Southeast  Level FlightAware Approximate
08:13PM 44.2864 -108.4818 122° Southeast  Level FlightAware Approximate
08:14PM 44.2616 -108.4261 122° Southeast  Level FlightAware Approximate
08:15PM 44.2331 -108.3745 133° Southeast  Level FlightAware Approximate
08:16PM 44.2012 -108.3266 133° Southeast  Level FlightAware Approximate
08:17PM 44.1692 -108.2787 133° Southeast  Level FlightAware Approximate
08:18PM 44.1373 -108.2308 133° Southeast  Level FlightAware Approximate
08:19PM 44.1054 -108.1830 133° Southeast  Level FlightAware Approximate
08:20PM 44.0735 -108.1350 133° Southeast  Level FlightAware Approximate
08:21PM 44.0416 -108.0871 133° Southeast  Level FlightAware Approximate
08:22PM 44.0097 -108.0393 133° Southeast  Level FlightAware Approximate
08:23PM 43.9778 -107.9915 133° Southeast  Level FlightAware Approximate
08:24PM 43.9470 -107.9427 120° Southeast  Level FlightAware Approximate
08:25PM 43.9235 -107.8863 120° Southeast  Level FlightAware Approximate
08:26PM 43.9000 -107.8299 120° Southeast  Level FlightAware Approximate
08:26PM 43.9808 -107.9764 128° Southeast 164 189 12,000  Level Denver Center
08:27PM 43.8765 -107.7736 120° Southeast  Level FlightAware Approximate
08:28PM 43.8499 -107.7202 128° Southeast  Level FlightAware Approximate
08:28PM 43.9353 -107.9106 134° Southeast  Level Estimated
08:29PM 43.8211 -107.6689 128° Southeast  Level FlightAware Approximate
08:30PM 43.7922 -107.6177 128° Southeast  Level FlightAware Approximate
08:31PM 43.7633 -107.5665 128° Southeast  Level FlightAware Approximate
08:32PM 43.5475 -107.1417 134° Southeast 157 181 11,900  Level Denver Center
08:33PM 43.5208 -107.0911 126° Southeast 170 196 12,000  Climbing Denver Center
08:34PM 43.4908 -107.0336 126° Southeast 166 191 12,000  Level Denver Center
08:35PM 43.7074 -107.5832 134° Southeast  Level Estimated
08:35PM 43.4653 -106.9822 124° Southeast 168 193 12,000  Level Denver Center
08:36PM 43.6747 -107.5366 134° Southeast  Level Estimated
08:36PM 43.4386 -106.9314 126° Southeast 169 194 12,000  Level Denver Center
08:37PM 43.6421 -107.4900 134° Southeast  Level Estimated
08:37PM 43.4075 -106.8744 127° Southeast 169 194 12,000  Level Denver Center
08:38PM 43.3822 -106.8217 123° Southeast 171 197 12,000  Level Denver Center
08:39PM 43.3500 -106.7617 126° Southeast 173 199 12,000 -120 Level Denver Center
08:40PM 43.3153 -106.7219 140° Southeast 172 198 11,800 -360 Descending Denver Center
08:41PM 43.2625 -106.6925 158° South 182 209 11,300 -540 Descending Denver Center
08:42PM 43.2178 -106.6653 156° South 182 209 10,800 -540 Descending Denver Center
08:43PM 43.1731 -106.6361 155° Southeast 184 212 10,200 -780 Descending Denver Center
08:44PM 43.1206 -106.6019 155° Southeast 186 214 9,300 -780 Descending Denver Center
08:45PM 43.0744 -106.5786 160° South 185 213 8,600 -780 Descending Denver Center
08:47PM 43.0178 -106.5528 162° South 187 215 7,700 -600 Descending Denver Center
08:48PM 42.9686 -106.5369 167° South 188 216 7,400 -300 Descending Denver Center
08:49PM 42.9122 -106.5397 182° South 187 215 7,100 -300 Descending Denver Center
08:51PM 42.9080 -106.4644 154° Southeast  Level Estimated
08:58PM 42.9080 -106.4644 154° Southeast  Level Estimated
08:59PM 42.9080 -106.4644 154° Southeast  Level Estimated